sensor_id;sensor_type;location;lat;lon;timestamp;P1;durP1;ratioP1;P2;durP2;ratioP2
4758;SDS011;2393;50.560;12.636;2023-05-07T00:01:27;22.50;;;12.50;;
4758;SDS011;2393;50.560;12.636;2023-05-07T00:03:54;28.03;;;12.73;;
4758;SDS011;2393;50.560;12.636;2023-05-07T00:06:23;23.20;;;12.97;;
4758;SDS011;2393;50.560;12.636;2023-05-07T00:08:53;30.93;;;14.97;;
4758;SDS011;2393;50.560;12.636;2023-05-07T00:11:21;36.20;;;15.93;;
4758;SDS011;2393;50.560;12.636;2023-05-07T00:13:50;30.17;;;14.40;;
4758;SDS011;2393;50.560;12.636;2023-05-07T00:16:18;27.57;;;14.37;;
4758;SDS011;2393;50.560;12.636;2023-05-07T00:18:46;28.77;;;15.57;;
4758;SDS011;2393;50.560;12.636;2023-05-07T00:21:15;26.20;;;15.50;;
4758;SDS011;2393;50.560;12.636;2023-05-07T00:23:43;31.43;;;14.50;;
4758;SDS011;2393;50.560;12.636;2023-05-07T00:26:11;20.03;;;13.20;;
4758;SDS011;2393;50.560;12.636;2023-05-07T00:28:47;33.60;;;15.60;;
4758;SDS011;2393;50.560;12.636;2023-05-07T00:31:16;33.60;;;15.90;;
4758;SDS011;2393;50.560;12.636;2023-05-07T00:33:44;35.57;;;17.43;;
4758;SDS011;2393;50.560;12.636;2023-05-07T00:36:13;31.37;;;15.83;;
4758;SDS011;2393;50.560;12.636;2023-05-07T00:38:41;34.30;;;16.47;;
4758;SDS011;2393;50.560;12.636;2023-05-07T00:41:09;35.70;;;15.80;;
4758;SDS011;2393;50.560;12.636;2023-05-07T00:43:37;38.07;;;17.17;;
4758;SDS011;2393;50.560;12.636;2023-05-07T00:46:05;27.90;;;14.33;;
4758;SDS011;2393;50.560;12.636;2023-05-07T00:48:34;28.23;;;14.37;;
4758;SDS011;2393;50.560;12.636;2023-05-07T00:51:03;31.33;;;16.20;;
4758;SDS011;2393;50.560;12.636;2023-05-07T00:53:31;36.40;;;16.30;;
4758;SDS011;2393;50.560;12.636;2023-05-07T00:55:59;32.67;;;15.17;;
4758;SDS011;2393;50.560;12.636;2023-05-07T00:58:27;35.87;;;17.27;;
4758;SDS011;2393;50.560;12.636;2023-05-07T01:00:55;33.10;;;16.53;;
4758;SDS011;2393;50.560;12.636;2023-05-07T01:03:24;37.70;;;18.53;;
4758;SDS011;2393;50.560;12.636;2023-05-07T01:05:54;38.60;;;17.67;;
4758;SDS011;2393;50.560;12.636;2023-05-07T01:08:24;39.40;;;18.20;;
4758;SDS011;2393;50.560;12.636;2023-05-07T01:10:54;38.60;;;18.83;;
4758;SDS011;2393;50.560;12.636;2023-05-07T01:13:23;40.50;;;19.90;;
4758;SDS011;2393;50.560;12.636;2023-05-07T01:15:52;37.67;;;18.80;;
4758;SDS011;2393;50.560;12.636;2023-05-07T01:18:20;44.87;;;17.00;;
4758;SDS011;2393;50.560;12.636;2023-05-07T01:20:48;35.07;;;17.37;;
4758;SDS011;2393;50.560;12.636;2023-05-07T01:23:18;30.60;;;16.93;;
4758;SDS011;2393;50.560;12.636;2023-05-07T01:25:50;32.63;;;16.37;;
4758;SDS011;2393;50.560;12.636;2023-05-07T01:28:20;31.50;;;17.00;;
4758;SDS011;2393;50.560;12.636;2023-05-07T01:30:51;35.70;;;17.03;;
4758;SDS011;2393;50.560;12.636;2023-05-07T01:33:22;35.03;;;17.53;;
4758;SDS011;2393;50.560;12.636;2023-05-07T01:35:52;36.47;;;18.00;;
4758;SDS011;2393;50.560;12.636;2023-05-07T01:38:22;37.23;;;18.70;;
4758;SDS011;2393;50.560;12.636;2023-05-07T01:40:51;35.27;;;17.13;;
4758;SDS011;2393;50.560;12.636;2023-05-07T01:43:20;40.63;;;18.73;;
4758;SDS011;2393;50.560;12.636;2023-05-07T01:45:48;33.73;;;16.97;;
4758;SDS011;2393;50.560;12.636;2023-05-07T01:48:16;37.67;;;16.83;;
4758;SDS011;2393;50.560;12.636;2023-05-07T01:50:45;40.83;;;18.43;;
4758;SDS011;2393;50.560;12.636;2023-05-07T01:53:14;38.13;;;17.70;;
4758;SDS011;2393;50.560;12.636;2023-05-07T01:55:43;47.40;;;20.30;;
4758;SDS011;2393;50.560;12.636;2023-05-07T01:58:12;41.20;;;19.93;;
4758;SDS011;2393;50.560;12.636;2023-05-07T02:00:40;43.43;;;20.77;;
4758;SDS011;2393;50.560;12.636;2023-05-07T02:03:08;40.47;;;18.83;;
4758;SDS011;2393;50.560;12.636;2023-05-07T02:05:52;46.60;;;21.43;;
4758;SDS011;2393;50.560;12.636;2023-05-07T02:08:28;49.50;;;20.83;;
4758;SDS011;2393;50.560;12.636;2023-05-07T02:10:58;49.50;;;20.20;;
4758;SDS011;2393;50.560;12.636;2023-05-07T02:13:28;51.17;;;22.30;;
4758;SDS011;2393;50.560;12.636;2023-05-07T02:15:57;41.37;;;18.30;;
4758;SDS011;2393;50.560;12.636;2023-05-07T02:18:29;46.97;;;21.63;;
4758;SDS011;2393;50.560;12.636;2023-05-07T02:20:58;42.20;;;20.90;;
4758;SDS011;2393;50.560;12.636;2023-05-07T02:23:26;46.30;;;22.10;;
4758;SDS011;2393;50.560;12.636;2023-05-07T02:25:54;44.30;;;21.27;;
4758;SDS011;2393;50.560;12.636;2023-05-07T02:28:23;45.90;;;21.70;;
4758;SDS011;2393;50.560;12.636;2023-05-07T02:31:00;48.50;;;21.80;;
4758;SDS011;2393;50.560;12.636;2023-05-07T02:33:29;48.10;;;20.37;;
4758;SDS011;2393;50.560;12.636;2023-05-07T02:36:04;47.17;;;21.70;;
4758;SDS011;2393;50.560;12.636;2023-05-07T02:38:35;47.27;;;21.80;;
4758;SDS011;2393;50.560;12.636;2023-05-07T02:41:03;48.40;;;22.33;;
4758;SDS011;2393;50.560;12.636;2023-05-07T02:43:33;37.87;;;20.27;;
4758;SDS011;2393;50.560;12.636;2023-05-07T02:46:01;52.77;;;20.13;;
4758;SDS011;2393;50.560;12.636;2023-05-07T02:48:31;36.77;;;19.77;;
4758;SDS011;2393;50.560;12.636;2023-05-07T02:51:00;35.33;;;18.47;;
4758;SDS011;2393;50.560;12.636;2023-05-07T02:53:29;42.00;;;19.30;;
4758;SDS011;2393;50.560;12.636;2023-05-07T02:55:57;42.97;;;20.30;;
4758;SDS011;2393;50.560;12.636;2023-05-07T02:58:26;50.23;;;21.10;;
4758;SDS011;2393;50.560;12.636;2023-05-07T03:00:57;46.03;;;20.47;;
4758;SDS011;2393;50.560;12.636;2023-05-07T03:03:36;41.47;;;20.13;;
4758;SDS011;2393;50.560;12.636;2023-05-07T03:06:05;43.97;;;20.57;;
4758;SDS011;2393;50.560;12.636;2023-05-07T03:08:33;39.83;;;18.80;;
4758;SDS011;2393;50.560;12.636;2023-05-07T03:11:02;36.40;;;17.03;;
4758;SDS011;2393;50.560;12.636;2023-05-07T03:13:31;41.70;;;17.70;;
4758;SDS011;2393;50.560;12.636;2023-05-07T03:16:08;39.47;;;18.00;;
4758;SDS011;2393;50.560;12.636;2023-05-07T03:18:36;44.33;;;19.10;;
4758;SDS011;2393;50.560;12.636;2023-05-07T03:21:04;38.10;;;18.43;;
4758;SDS011;2393;50.560;12.636;2023-05-07T03:23:33;36.30;;;18.80;;
4758;SDS011;2393;50.560;12.636;2023-05-07T03:26:01;42.63;;;20.00;;
4758;SDS011;2393;50.560;12.636;2023-05-07T03:28:29;40.90;;;17.87;;
4758;SDS011;2393;50.560;12.636;2023-05-07T03:31:02;39.00;;;18.53;;
4758;SDS011;2393;50.560;12.636;2023-05-07T03:33:32;43.33;;;20.30;;
4758;SDS011;2393;50.560;12.636;2023-05-07T03:36:01;46.10;;;19.93;;
4758;SDS011;2393;50.560;12.636;2023-05-07T03:38:29;42.40;;;19.17;;
4758;SDS011;2393;50.560;12.636;2023-05-07T03:40:57;44.80;;;18.20;;
4758;SDS011;2393;50.560;12.636;2023-05-07T03:43:25;45.07;;;19.40;;
4758;SDS011;2393;50.560;12.636;2023-05-07T03:46:02;40.27;;;18.00;;
4758;SDS011;2393;50.560;12.636;2023-05-07T03:48:30;37.50;;;19.47;;
4758;SDS011;2393;50.560;12.636;2023-05-07T03:50:58;37.43;;;17.73;;
4758;SDS011;2393;50.560;12.636;2023-05-07T03:53:30;30.93;;;16.70;;
4758;SDS011;2393;50.560;12.636;2023-05-07T03:55:59;31.60;;;16.73;;
4758;SDS011;2393;50.560;12.636;2023-05-07T03:58:30;29.27;;;15.33;;
4758;SDS011;2393;50.560;12.636;2023-05-07T04:01:04;31.63;;;16.40;;
4758;SDS011;2393;50.560;12.636;2023-05-07T04:03:34;33.00;;;16.77;;
4758;SDS011;2393;50.560;12.636;2023-05-07T04:06:02;37.50;;;17.03;;
4758;SDS011;2393;50.560;12.636;2023-05-07T04:08:33;32.50;;;16.00;;
4758;SDS011;2393;50.560;12.636;2023-05-07T04:11:02;31.67;;;16.50;;
4758;SDS011;2393;50.560;12.636;2023-05-07T04:13:32;37.67;;;16.40;;
4758;SDS011;2393;50.560;12.636;2023-05-07T04:16:02;33.20;;;15.37;;
4758;SDS011;2393;50.560;12.636;2023-05-07T04:18:34;31.50;;;16.63;;
4758;SDS011;2393;50.560;12.636;2023-05-07T04:21:03;39.70;;;15.80;;
4758;SDS011;2393;50.560;12.636;2023-05-07T04:23:33;32.83;;;16.40;;
4758;SDS011;2393;50.560;12.636;2023-05-07T04:26:06;33.17;;;17.43;;
4758;SDS011;2393;50.560;12.636;2023-05-07T04:28:38;30.07;;;15.93;;
4758;SDS011;2393;50.560;12.636;2023-05-07T04:31:10;31.80;;;16.10;;
4758;SDS011;2393;50.560;12.636;2023-05-07T04:33:39;30.77;;;15.43;;
4758;SDS011;2393;50.560;12.636;2023-05-07T04:36:10;41.93;;;18.07;;
4758;SDS011;2393;50.560;12.636;2023-05-07T04:38:46;26.27;;;15.10;;
4758;SDS011;2393;50.560;12.636;2023-05-07T04:41:16;31.47;;;14.77;;
4758;SDS011;2393;50.560;12.636;2023-05-07T04:43:44;28.20;;;16.20;;
4758;SDS011;2393;50.560;12.636;2023-05-07T04:46:15;31.30;;;15.13;;
4758;SDS011;2393;50.560;12.636;2023-05-07T04:48:43;35.87;;;17.47;;
4758;SDS011;2393;50.560;12.636;2023-05-07T04:51:11;34.17;;;15.20;;
4758;SDS011;2393;50.560;12.636;2023-05-07T04:53:39;30.13;;;16.63;;
4758;SDS011;2393;50.560;12.636;2023-05-07T04:56:09;37.73;;;17.63;;
4758;SDS011;2393;50.560;12.636;2023-05-07T04:58:40;28.43;;;15.00;;
4758;SDS011;2393;50.560;12.636;2023-05-07T05:01:09;32.13;;;15.13;;
4758;SDS011;2393;50.560;12.636;2023-05-07T05:03:39;26.50;;;15.57;;
4758;SDS011;2393;50.560;12.636;2023-05-07T05:06:07;26.33;;;14.87;;
4758;SDS011;2393;50.560;12.636;2023-05-07T05:08:35;27.90;;;14.03;;
4758;SDS011;2393;50.560;12.636;2023-05-07T05:11:04;27.27;;;14.27;;
4758;SDS011;2393;50.560;12.636;2023-05-07T05:13:34;32.17;;;13.80;;
4758;SDS011;2393;50.560;12.636;2023-05-07T05:16:09;25.70;;;13.07;;
4758;SDS011;2393;50.560;12.636;2023-05-07T05:18:40;27.93;;;14.17;;
4758;SDS011;2393;50.560;12.636;2023-05-07T05:21:10;30.53;;;14.30;;
4758;SDS011;2393;50.560;12.636;2023-05-07T05:23:39;27.93;;;14.43;;
4758;SDS011;2393;50.560;12.636;2023-05-07T05:26:07;26.97;;;14.10;;
4758;SDS011;2393;50.560;12.636;2023-05-07T05:28:36;25.53;;;12.83;;
4758;SDS011;2393;50.560;12.636;2023-05-07T05:31:04;25.43;;;11.93;;
4758;SDS011;2393;50.560;12.636;2023-05-07T05:33:35;34.90;;;15.40;;
4758;SDS011;2393;50.560;12.636;2023-05-07T05:36:06;26.60;;;13.33;;
4758;SDS011;2393;50.560;12.636;2023-05-07T05:38:37;21.93;;;11.17;;
4758;SDS011;2393;50.560;12.636;2023-05-07T05:41:05;26.60;;;12.90;;
4758;SDS011;2393;50.560;12.636;2023-05-07T05:43:34;22.97;;;12.80;;
4758;SDS011;2393;50.560;12.636;2023-05-07T05:46:02;22.70;;;11.40;;
4758;SDS011;2393;50.560;12.636;2023-05-07T05:48:30;28.53;;;13.30;;
4758;SDS011;2393;50.560;12.636;2023-05-07T05:51:01;28.07;;;12.70;;
4758;SDS011;2393;50.560;12.636;2023-05-07T05:53:32;22.37;;;12.87;;
4758;SDS011;2393;50.560;12.636;2023-05-07T05:59:23;21.57;;;11.40;;
4758;SDS011;2393;50.560;12.636;2023-05-07T06:01:52;20.23;;;10.73;;
4758;SDS011;2393;50.560;12.636;2023-05-07T06:07:20;19.10;;;10.70;;
4758;SDS011;2393;50.560;12.636;2023-05-07T06:09:50;18.73;;;11.17;;
4758;SDS011;2393;50.560;12.636;2023-05-07T06:12:19;19.20;;;10.03;;
4758;SDS011;2393;50.560;12.636;2023-05-07T06:14:48;15.13;;;9.63;;
4758;SDS011;2393;50.560;12.636;2023-05-07T06:17:17;19.70;;;11.20;;
4758;SDS011;2393;50.560;12.636;2023-05-07T06:19:49;29.63;;;13.50;;
4758;SDS011;2393;50.560;12.636;2023-05-07T06:22:18;21.40;;;13.13;;
4758;SDS011;2393;50.560;12.636;2023-05-07T06:24:47;21.77;;;11.73;;
4758;SDS011;2393;50.560;12.636;2023-05-07T06:27:16;28.23;;;13.07;;
4758;SDS011;2393;50.560;12.636;2023-05-07T06:29:44;21.87;;;10.83;;
4758;SDS011;2393;50.560;12.636;2023-05-07T06:32:14;22.87;;;12.40;;
4758;SDS011;2393;50.560;12.636;2023-05-07T06:34:44;20.83;;;11.50;;
4758;SDS011;2393;50.560;12.636;2023-05-07T06:37:13;21.53;;;11.33;;
4758;SDS011;2393;50.560;12.636;2023-05-07T06:39:50;18.67;;;10.50;;
4758;SDS011;2393;50.560;12.636;2023-05-07T06:42:20;23.63;;;10.87;;
4758;SDS011;2393;50.560;12.636;2023-05-07T06:44:49;19.70;;;9.33;;
4758;SDS011;2393;50.560;12.636;2023-05-07T06:47:17;15.80;;;10.10;;
4758;SDS011;2393;50.560;12.636;2023-05-07T06:49:49;17.63;;;9.57;;
4758;SDS011;2393;50.560;12.636;2023-05-07T06:52:20;21.00;;;10.47;;
4758;SDS011;2393;50.560;12.636;2023-05-07T06:54:50;18.37;;;11.13;;
4758;SDS011;2393;50.560;12.636;2023-05-07T06:57:21;15.80;;;10.37;;
4758;SDS011;2393;50.560;12.636;2023-05-07T06:59:49;17.33;;;9.67;;
4758;SDS011;2393;50.560;12.636;2023-05-07T07:02:18;19.10;;;10.00;;
4758;SDS011;2393;50.560;12.636;2023-05-07T07:04:48;14.83;;;9.13;;
4758;SDS011;2393;50.560;12.636;2023-05-07T07:07:16;23.27;;;10.60;;
4758;SDS011;2393;50.560;12.636;2023-05-07T07:09:49;26.43;;;9.00;;
4758;SDS011;2393;50.560;12.636;2023-05-07T07:12:18;18.23;;;7.73;;
4758;SDS011;2393;50.560;12.636;2023-05-07T07:14:47;18.07;;;10.50;;
4758;SDS011;2393;50.560;12.636;2023-05-07T07:17:15;16.27;;;8.37;;
4758;SDS011;2393;50.560;12.636;2023-05-07T07:19:43;17.60;;;9.90;;
4758;SDS011;2393;50.560;12.636;2023-05-07T07:22:11;15.83;;;9.20;;
4758;SDS011;2393;50.560;12.636;2023-05-07T07:24:40;14.93;;;8.77;;
4758;SDS011;2393;50.560;12.636;2023-05-07T07:27:10;14.07;;;7.97;;
4758;SDS011;2393;50.560;12.636;2023-05-07T07:29:38;14.77;;;8.50;;
4758;SDS011;2393;50.560;12.636;2023-05-07T07:32:08;15.57;;;8.70;;
4758;SDS011;2393;50.560;12.636;2023-05-07T07:34:36;12.00;;;8.17;;
4758;SDS011;2393;50.560;12.636;2023-05-07T07:37:05;16.00;;;8.30;;
4758;SDS011;2393;50.560;12.636;2023-05-07T07:39:35;11.50;;;7.97;;
4758;SDS011;2393;50.560;12.636;2023-05-07T07:42:05;17.63;;;10.50;;
4758;SDS011;2393;50.560;12.636;2023-05-07T07:44:33;16.33;;;8.27;;
4758;SDS011;2393;50.560;12.636;2023-05-07T07:47:07;14.23;;;9.27;;
4758;SDS011;2393;50.560;12.636;2023-05-07T07:49:36;12.80;;;7.73;;
4758;SDS011;2393;50.560;12.636;2023-05-07T07:52:06;16.83;;;8.50;;
4758;SDS011;2393;50.560;12.636;2023-05-07T07:54:36;11.73;;;7.70;;
4758;SDS011;2393;50.560;12.636;2023-05-07T07:57:06;15.30;;;8.90;;
4758;SDS011;2393;50.560;12.636;2023-05-07T07:59:34;12.40;;;7.50;;
4758;SDS011;2393;50.560;12.636;2023-05-07T08:02:03;9.50;;;6.90;;
4758;SDS011;2393;50.560;12.636;2023-05-07T08:04:33;19.00;;;8.53;;
4758;SDS011;2393;50.560;12.636;2023-05-07T08:07:04;12.30;;;6.97;;
4758;SDS011;2393;50.560;12.636;2023-05-07T08:09:35;13.17;;;7.17;;
4758;SDS011;2393;50.560;12.636;2023-05-07T08:12:04;15.23;;;8.17;;
4758;SDS011;2393;50.560;12.636;2023-05-07T08:14:33;12.80;;;7.20;;
4758;SDS011;2393;50.560;12.636;2023-05-07T08:17:03;16.70;;;7.53;;
4758;SDS011;2393;50.560;12.636;2023-05-07T08:19:33;14.03;;;8.17;;
4758;SDS011;2393;50.560;12.636;2023-05-07T08:22:02;13.13;;;8.10;;
4758;SDS011;2393;50.560;12.636;2023-05-07T08:24:32;16.40;;;7.50;;
4758;SDS011;2393;50.560;12.636;2023-05-07T08:27:00;12.20;;;7.33;;
4758;SDS011;2393;50.560;12.636;2023-05-07T08:29:29;11.60;;;6.50;;
4758;SDS011;2393;50.560;12.636;2023-05-07T08:31:58;8.23;;;6.73;;
4758;SDS011;2393;50.560;12.636;2023-05-07T08:34:26;10.63;;;6.63;;
4758;SDS011;2393;50.560;12.636;2023-05-07T08:36:57;7.63;;;6.33;;
4758;SDS011;2393;50.560;12.636;2023-05-07T08:39:26;13.20;;;6.20;;
4758;SDS011;2393;50.560;12.636;2023-05-07T08:41:55;7.93;;;5.77;;
4758;SDS011;2393;50.560;12.636;2023-05-07T08:44:25;11.70;;;6.40;;
4758;SDS011;2393;50.560;12.636;2023-05-07T08:46:56;11.37;;;6.83;;
4758;SDS011;2393;50.560;12.636;2023-05-07T08:49:29;8.47;;;5.23;;
4758;SDS011;2393;50.560;12.636;2023-05-07T08:51:59;11.43;;;5.93;;
4758;SDS011;2393;50.560;12.636;2023-05-07T08:54:28;8.00;;;5.73;;
4758;SDS011;2393;50.560;12.636;2023-05-07T08:56:58;8.70;;;6.00;;
4758;SDS011;2393;50.560;12.636;2023-05-07T08:59:27;14.50;;;6.17;;
4758;SDS011;2393;50.560;12.636;2023-05-07T09:01:56;8.33;;;6.07;;
4758;SDS011;2393;50.560;12.636;2023-05-07T09:04:24;9.50;;;6.60;;
4758;SDS011;2393;50.560;12.636;2023-05-07T09:06:52;8.33;;;5.70;;
4758;SDS011;2393;50.560;12.636;2023-05-07T09:09:24;6.97;;;5.43;;
4758;SDS011;2393;50.560;12.636;2023-05-07T09:11:56;6.20;;;5.53;;
4758;SDS011;2393;50.560;12.636;2023-05-07T09:14:26;8.87;;;5.60;;
4758;SDS011;2393;50.560;12.636;2023-05-07T09:16:54;8.37;;;5.70;;
4758;SDS011;2393;50.560;12.636;2023-05-07T09:19:22;7.90;;;4.80;;
4758;SDS011;2393;50.560;12.636;2023-05-07T09:21:57;9.30;;;6.00;;
4758;SDS011;2393;50.560;12.636;2023-05-07T09:24:31;10.90;;;5.13;;
4758;SDS011;2393;50.560;12.636;2023-05-07T09:27:03;6.10;;;4.80;;
4758;SDS011;2393;50.560;12.636;2023-05-07T09:29:32;5.90;;;4.90;;
4758;SDS011;2393;50.560;12.636;2023-05-07T09:32:03;7.17;;;4.20;;
4758;SDS011;2393;50.560;12.636;2023-05-07T09:34:33;8.23;;;5.60;;
4758;SDS011;2393;50.560;12.636;2023-05-07T09:37:03;7.50;;;5.37;;
4758;SDS011;2393;50.560;12.636;2023-05-07T09:39:42;6.53;;;4.77;;
4758;SDS011;2393;50.560;12.636;2023-05-07T09:42:13;6.87;;;4.50;;
4758;SDS011;2393;50.560;12.636;2023-05-07T09:44:43;4.63;;;4.20;;
4758;SDS011;2393;50.560;12.636;2023-05-07T09:47:17;8.20;;;4.70;;
4758;SDS011;2393;50.560;12.636;2023-05-07T09:49:50;7.43;;;5.07;;
4758;SDS011;2393;50.560;12.636;2023-05-07T09:52:25;6.43;;;4.73;;
4758;SDS011;2393;50.560;12.636;2023-05-07T09:55:03;6.00;;;4.40;;
4758;SDS011;2393;50.560;12.636;2023-05-07T09:57:32;6.50;;;5.00;;
4758;SDS011;2393;50.560;12.636;2023-05-07T10:00:07;5.33;;;3.73;;
4758;SDS011;2393;50.560;12.636;2023-05-07T10:03:02;8.00;;;4.80;;
4758;SDS011;2393;50.560;12.636;2023-05-07T10:05:40;7.30;;;3.83;;
4758;SDS011;2393;50.560;12.636;2023-05-07T10:08:11;4.37;;;3.93;;
4758;SDS011;2393;50.560;12.636;2023-05-07T10:10:46;6.73;;;4.20;;
4758;SDS011;2393;50.560;12.636;2023-05-07T10:13:18;5.60;;;3.90;;
4758;SDS011;2393;50.560;12.636;2023-05-07T10:15:50;6.33;;;4.67;;
4758;SDS011;2393;50.560;12.636;2023-05-07T10:18:20;5.70;;;4.03;;
4758;SDS011;2393;50.560;12.636;2023-05-07T10:20:51;5.30;;;4.30;;
4758;SDS011;2393;50.560;12.636;2023-05-07T10:23:23;9.40;;;4.10;;
4758;SDS011;2393;50.560;12.636;2023-05-07T10:25:57;4.83;;;3.87;;
4758;SDS011;2393;50.560;12.636;2023-05-07T10:28:29;3.87;;;3.53;;
4758;SDS011;2393;50.560;12.636;2023-05-07T10:31:05;6.43;;;4.17;;
4758;SDS011;2393;50.560;12.636;2023-05-07T10:33:45;4.47;;;3.70;;
4758;SDS011;2393;50.560;12.636;2023-05-07T10:36:18;4.00;;;3.70;;
4758;SDS011;2393;50.560;12.636;2023-05-07T10:38:48;3.50;;;3.20;;
4758;SDS011;2393;50.560;12.636;2023-05-07T10:41:18;4.03;;;3.73;;
4758;SDS011;2393;50.560;12.636;2023-05-07T10:43:48;3.37;;;3.07;;
4758;SDS011;2393;50.560;12.636;2023-05-07T10:46:22;3.53;;;3.23;;
4758;SDS011;2393;50.560;12.636;2023-05-07T10:49:06;5.10;;;3.73;;
4758;SDS011;2393;50.560;12.636;2023-05-07T10:52:13;7.33;;;3.60;;
4758;SDS011;2393;50.560;12.636;2023-05-07T10:55:21;3.57;;;3.03;;
4758;SDS011;2393;50.560;12.636;2023-05-07T11:01:06;5.10;;;3.00;;
4758;SDS011;2393;50.560;12.636;2023-05-07T11:04:12;3.30;;;3.00;;
4758;SDS011;2393;50.560;12.636;2023-05-07T11:09:57;3.53;;;3.20;;
4758;SDS011;2393;50.560;12.636;2023-05-07T11:12:51;4.40;;;2.97;;
4758;SDS011;2393;50.560;12.636;2023-05-07T11:15:40;5.07;;;3.43;;
4758;SDS011;2393;50.560;12.636;2023-05-07T11:18:48;4.07;;;3.27;;
4758;SDS011;2393;50.560;12.636;2023-05-07T11:21:34;3.10;;;2.80;;
4758;SDS011;2393;50.560;12.636;2023-05-07T11:24:09;3.50;;;3.20;;
4758;SDS011;2393;50.560;12.636;2023-05-07T11:27:02;4.27;;;2.93;;
4758;SDS011;2393;50.560;12.636;2023-05-07T11:29:31;4.20;;;3.30;;
4758;SDS011;2393;50.560;12.636;2023-05-07T11:32:05;3.13;;;2.93;;
4758;SDS011;2393;50.560;12.636;2023-05-07T11:34:44;3.57;;;3.27;;
4758;SDS011;2393;50.560;12.636;2023-05-07T11:37:21;8.13;;;3.37;;
4758;SDS011;2393;50.560;12.636;2023-05-07T11:40:03;6.70;;;2.77;;
4758;SDS011;2393;50.560;12.636;2023-05-07T11:42:34;3.23;;;2.70;;
4758;SDS011;2393;50.560;12.636;2023-05-07T11:45:06;4.53;;;3.10;;
4758;SDS011;2393;50.560;12.636;2023-05-07T11:47:35;3.57;;;3.30;;
4758;SDS011;2393;50.560;12.636;2023-05-07T11:50:09;4.40;;;3.17;;
4758;SDS011;2393;50.560;12.636;2023-05-07T11:52:38;3.93;;;3.37;;
4758;SDS011;2393;50.560;12.636;2023-05-07T11:55:07;4.70;;;3.60;;
4758;SDS011;2393;50.560;12.636;2023-05-07T11:57:38;3.63;;;3.03;;
4758;SDS011;2393;50.560;12.636;2023-05-07T12:00:09;5.57;;;3.90;;
4758;SDS011;2393;50.560;12.636;2023-05-07T12:02:38;6.03;;;4.10;;
4758;SDS011;2393;50.560;12.636;2023-05-07T12:05:07;5.73;;;3.87;;
4758;SDS011;2393;50.560;12.636;2023-05-07T12:07:40;5.60;;;3.50;;
4758;SDS011;2393;50.560;12.636;2023-05-07T12:10:09;3.93;;;3.53;;
4758;SDS011;2393;50.560;12.636;2023-05-07T12:12:39;3.30;;;3.00;;
4758;SDS011;2393;50.560;12.636;2023-05-07T12:15:08;5.20;;;3.10;;
4758;SDS011;2393;50.560;12.636;2023-05-07T12:17:37;5.50;;;3.80;;
4758;SDS011;2393;50.560;12.636;2023-05-07T12:20:06;4.57;;;3.80;;
4758;SDS011;2393;50.560;12.636;2023-05-07T12:22:37;4.63;;;3.40;;
4758;SDS011;2393;50.560;12.636;2023-05-07T12:25:06;3.53;;;3.23;;
4758;SDS011;2393;50.560;12.636;2023-05-07T12:27:37;3.80;;;3.40;;
4758;SDS011;2393;50.560;12.636;2023-05-07T12:30:11;3.27;;;2.93;;
4758;SDS011;2393;50.560;12.636;2023-05-07T12:32:41;4.77;;;3.40;;
4758;SDS011;2393;50.560;12.636;2023-05-07T12:35:13;2.83;;;2.53;;
4758;SDS011;2393;50.560;12.636;2023-05-07T12:37:41;3.23;;;2.93;;
4758;SDS011;2393;50.560;12.636;2023-05-07T12:40:10;4.13;;;2.67;;
4758;SDS011;2393;50.560;12.636;2023-05-07T12:42:40;3.10;;;2.80;;
4758;SDS011;2393;50.560;12.636;2023-05-07T12:45:09;2.60;;;2.40;;
4758;SDS011;2393;50.560;12.636;2023-05-07T12:47:38;4.40;;;3.60;;
4758;SDS011;2393;50.560;12.636;2023-05-07T12:50:06;3.77;;;2.63;;
4758;SDS011;2393;50.560;12.636;2023-05-07T12:52:36;2.57;;;2.43;;
4758;SDS011;2393;50.560;12.636;2023-05-07T12:55:04;3.63;;;3.33;;
4758;SDS011;2393;50.560;12.636;2023-05-07T12:57:37;2.57;;;2.40;;
4758;SDS011;2393;50.560;12.636;2023-05-07T13:00:06;2.80;;;2.60;;
4758;SDS011;2393;50.560;12.636;2023-05-07T13:02:37;4.53;;;2.90;;
4758;SDS011;2393;50.560;12.636;2023-05-07T13:05:07;9.03;;;3.13;;
4758;SDS011;2393;50.560;12.636;2023-05-07T13:07:37;3.00;;;2.80;;
4758;SDS011;2393;50.560;12.636;2023-05-07T13:10:06;3.27;;;2.97;;
4758;SDS011;2393;50.560;12.636;2023-05-07T13:12:35;2.43;;;2.23;;
4758;SDS011;2393;50.560;12.636;2023-05-07T13:15:03;3.10;;;2.80;;
4758;SDS011;2393;50.560;12.636;2023-05-07T13:17:32;2.50;;;2.30;;
4758;SDS011;2393;50.560;12.636;2023-05-07T13:20:01;3.73;;;3.37;;
4758;SDS011;2393;50.560;12.636;2023-05-07T13:22:30;2.53;;;2.33;;
4758;SDS011;2393;50.560;12.636;2023-05-07T13:25:00;2.60;;;2.50;;
4758;SDS011;2393;50.560;12.636;2023-05-07T13:27:29;2.60;;;2.40;;
4758;SDS011;2393;50.560;12.636;2023-05-07T13:29:57;3.77;;;2.70;;
4758;SDS011;2393;50.560;12.636;2023-05-07T13:32:25;3.20;;;2.53;;
4758;SDS011;2393;50.560;12.636;2023-05-07T13:34:54;3.07;;;2.50;;
4758;SDS011;2393;50.560;12.636;2023-05-07T13:37:22;3.67;;;3.00;;
4758;SDS011;2393;50.560;12.636;2023-05-07T13:39:50;3.30;;;3.10;;
4758;SDS011;2393;50.560;12.636;2023-05-07T13:42:19;5.60;;;3.10;;
4758;SDS011;2393;50.560;12.636;2023-05-07T13:44:47;3.47;;;3.20;;
4758;SDS011;2393;50.560;12.636;2023-05-07T13:47:15;2.57;;;2.47;;
4758;SDS011;2393;50.560;12.636;2023-05-07T13:49:43;3.10;;;2.80;;
4758;SDS011;2393;50.560;12.636;2023-05-07T13:52:11;2.67;;;2.47;;
4758;SDS011;2393;50.560;12.636;2023-05-07T13:54:39;2.00;;;1.90;;
4758;SDS011;2393;50.560;12.636;2023-05-07T13:57:08;3.30;;;3.10;;
4758;SDS011;2393;50.560;12.636;2023-05-07T13:59:37;2.10;;;2.00;;
4758;SDS011;2393;50.560;12.636;2023-05-07T14:02:05;2.73;;;2.53;;
4758;SDS011;2393;50.560;12.636;2023-05-07T14:04:35;4.60;;;2.93;;
4758;SDS011;2393;50.560;12.636;2023-05-07T14:07:04;2.40;;;2.20;;
4758;SDS011;2393;50.560;12.636;2023-05-07T14:09:32;2.37;;;2.27;;
4758;SDS011;2393;50.560;12.636;2023-05-07T14:12:01;2.67;;;2.47;;
4758;SDS011;2393;50.560;12.636;2023-05-07T14:14:28;2.60;;;2.40;;
4758;SDS011;2393;50.560;12.636;2023-05-07T14:16:58;2.67;;;2.57;;
4758;SDS011;2393;50.560;12.636;2023-05-07T14:19:26;5.10;;;2.27;;
4758;SDS011;2393;50.560;12.636;2023-05-07T14:21:55;2.60;;;2.47;;
4758;SDS011;2393;50.560;12.636;2023-05-07T14:24:24;2.67;;;2.50;;
4758;SDS011;2393;50.560;12.636;2023-05-07T14:27:04;2.00;;;1.90;;
4758;SDS011;2393;50.560;12.636;2023-05-07T14:29:32;2.77;;;2.57;;
4758;SDS011;2393;50.560;12.636;2023-05-07T14:32:03;2.30;;;2.20;;
4758;SDS011;2393;50.560;12.636;2023-05-07T14:34:31;2.23;;;2.03;;
4758;SDS011;2393;50.560;12.636;2023-05-07T14:36:59;3.00;;;2.70;;
4758;SDS011;2393;50.560;12.636;2023-05-07T14:39:27;2.80;;;2.50;;
4758;SDS011;2393;50.560;12.636;2023-05-07T14:41:56;3.00;;;2.80;;
4758;SDS011;2393;50.560;12.636;2023-05-07T14:44:25;2.30;;;2.20;;
4758;SDS011;2393;50.560;12.636;2023-05-07T14:46:53;2.47;;;2.27;;
4758;SDS011;2393;50.560;12.636;2023-05-07T14:49:22;3.20;;;2.90;;
4758;SDS011;2393;50.560;12.636;2023-05-07T14:51:50;2.43;;;2.23;;
4758;SDS011;2393;50.560;12.636;2023-05-07T14:54:20;2.27;;;2.17;;
4758;SDS011;2393;50.560;12.636;2023-05-07T14:56:48;2.40;;;2.13;;
4758;SDS011;2393;50.560;12.636;2023-05-07T14:59:17;2.30;;;2.10;;
4758;SDS011;2393;50.560;12.636;2023-05-07T15:01:47;2.90;;;2.70;;
4758;SDS011;2393;50.560;12.636;2023-05-07T15:04:15;2.40;;;2.20;;
4758;SDS011;2393;50.560;12.636;2023-05-07T15:06:45;2.80;;;2.53;;
4758;SDS011;2393;50.560;12.636;2023-05-07T15:09:13;2.60;;;2.50;;
4758;SDS011;2393;50.560;12.636;2023-05-07T15:11:41;2.90;;;2.70;;
4758;SDS011;2393;50.560;12.636;2023-05-07T15:14:09;4.90;;;3.07;;
4758;SDS011;2393;50.560;12.636;2023-05-07T15:16:37;2.30;;;2.20;;
4758;SDS011;2393;50.560;12.636;2023-05-07T15:19:05;2.80;;;2.70;;
4758;SDS011;2393;50.560;12.636;2023-05-07T15:21:34;3.27;;;2.47;;